createdAt,value
2023-05-25T00:00:33.123Z,54.33
2023-05-25T00:01:36.129Z,54.20
2023-05-25T00:02:38.693Z,54.44
2023-05-25T00:03:41.455Z,54.37
2023-05-25T00:04:43.831Z,54.41
2023-05-25T00:05:46.595Z,54.48
2023-05-25T00:06:49.427Z,54.39
2023-05-25T00:07:51.623Z,54.50
2023-05-25T00:08:57.389Z,54.55
2023-05-25T00:09:59.726Z,54.36
2023-05-25T00:11:01.939Z,54.65
2023-05-25T00:12:04.358Z,54.58
2023-05-25T00:13:06.476Z,54.54
2023-05-25T00:14:09.226Z,54.59
2023-05-25T00:15:12.046Z,54.59
2023-05-25T00:16:15.808Z,54.59
2023-05-25T00:17:18.831Z,54.55
2023-05-25T00:18:22.083Z,54.67
2023-05-25T00:19:24.972Z,54.70
2023-05-25T00:20:27.348Z,54.75
2023-05-25T00:21:29.630Z,54.70
2023-05-25T00:22:31.901Z,54.80
2023-05-25T00:23:34.510Z,54.73
2023-05-25T00:24:37.274Z,54.75
2023-05-25T00:25:39.456Z,54.73
2023-05-25T00:26:41.967Z,54.79
2023-05-25T00:27:46.157Z,54.69
2023-05-25T00:28:48.581Z,54.82
2023-05-25T00:29:51.349Z,54.77
2023-05-25T00:30:53.773Z,54.81
2023-05-25T00:31:57.306Z,54.81
2023-05-25T00:32:59.647Z,54.83
2023-05-25T00:34:02.105Z,54.91
2023-05-25T00:35:04.667Z,54.88
2023-05-25T00:36:08.194Z,54.95
2023-05-25T00:37:10.560Z,55.04
2023-05-25T00:38:13.791Z,54.98
2023-05-25T00:39:18.463Z,55.05
2023-05-25T00:40:21.205Z,55.09
2023-05-25T00:41:25.176Z,55.06
2023-05-25T00:42:28.380Z,55.11
2023-05-25T00:43:30.829Z,55.06
2023-05-25T00:44:34.296Z,54.98
2023-05-25T00:45:36.597Z,55.11
2023-05-25T00:46:39.774Z,55.15
2023-05-25T00:47:43.095Z,55.15
2023-05-25T00:48:45.607Z,55.21
2023-05-25T00:49:47.715Z,55.25
2023-05-25T00:50:53.795Z,55.30
2023-05-25T00:51:57.828Z,55.22
2023-05-25T00:53:00.265Z,55.21
2023-05-25T00:54:03.552Z,55.35
2023-05-25T00:55:08.800Z,55.34
2023-05-25T00:56:20.135Z,55.45
2023-05-25T00:57:23.559Z,55.43
2023-05-25T00:58:27.549Z,55.48
2023-05-25T00:59:35.737Z,55.39
2023-05-25T01:00:41.039Z,55.34
2023-05-25T01:01:45.249Z,55.34
2023-05-25T01:02:48.962Z,55.22
2023-05-25T01:03:51.977Z,55.20
2023-05-25T01:04:56.830Z,55.17
2023-05-25T01:05:59.752Z,55.23
2023-05-25T01:07:06.527Z,55.15
2023-05-25T01:08:10.059Z,55.23
2023-05-25T01:09:13.307Z,55.18
2023-05-25T01:10:17.773Z,55.11
2023-05-25T01:11:24.386Z,55.11
2023-05-25T01:12:28.065Z,55.14
2023-05-25T01:13:31.993Z,55.11
2023-05-25T01:14:34.910Z,55.17
2023-05-25T01:15:38.229Z,55.25
2023-05-25T01:16:41.134Z,55.30
2023-05-25T01:17:43.874Z,55.20
2023-05-25T01:18:46.296Z,55.44
2023-05-25T01:20:01.573Z,55.34
2023-05-25T01:21:05.603Z,55.52
2023-05-25T01:22:14.665Z,55.52
2023-05-25T01:23:18.240Z,55.63
2023-05-25T01:24:36.649Z,55.62
2023-05-25T01:25:42.711Z,55.74
2023-05-25T01:26:55.045Z,55.67
2023-05-25T01:28:04.214Z,55.85
2023-05-25T01:29:07.914Z,55.71
2023-05-25T01:30:13.782Z,55.79
2023-05-25T01:31:18.527Z,55.86
2023-05-25T01:32:21.289Z,55.79
2023-05-25T01:33:23.912Z,55.77
2023-05-25T01:34:26.566Z,55.89
2023-05-25T01:35:29.394Z,56.00
2023-05-25T01:36:32.353Z,56.01
2023-05-25T01:37:39.221Z,56.08
2023-05-25T01:38:41.552Z,56.09
2023-05-25T01:39:45.730Z,55.99
2023-05-25T01:40:47.919Z,55.91
2023-05-25T01:41:50.153Z,55.94
2023-05-25T01:42:52.591Z,55.87
2023-05-25T01:43:54.795Z,55.85
2023-05-25T01:44:58.603Z,55.94
2023-05-25T01:47:51.296Z,55.87
2023-05-25T01:49:03.561Z,55.91
2023-05-25T01:51:39.369Z,55.89
2023-05-25T01:52:48.369Z,56.03
2023-05-25T01:53:57.134Z,56.25
2023-05-25T01:55:08.267Z,56.11
2023-05-25T01:56:14.175Z,56.14
2023-05-25T01:57:18.225Z,56.23
2023-05-25T01:58:22.637Z,56.14
2023-05-25T01:59:25.861Z,56.15
2023-05-25T02:00:29.529Z,56.27
2023-05-25T02:01:33.507Z,56.25
2023-05-25T02:02:36.479Z,56.40
2023-05-25T02:03:41.621Z,56.48
2023-05-25T02:04:45.258Z,56.41
2023-05-25T02:05:47.720Z,56.44
2023-05-25T02:06:51.424Z,56.51
2023-05-25T02:07:53.930Z,56.56
2023-05-25T02:08:56.243Z,56.52
2023-05-25T02:10:00.730Z,56.45
2023-05-25T02:11:03.137Z,56.54
2023-05-25T02:12:06.110Z,56.75
2023-05-25T02:13:09.039Z,56.86
2023-05-25T02:14:11.655Z,56.91
2023-05-25T02:15:15.580Z,56.79
2023-05-25T02:16:18.294Z,56.92
2023-05-25T02:17:20.635Z,57.11
2023-05-25T02:18:23.290Z,57.10
2023-05-25T02:19:26.103Z,57.08
2023-05-25T02:20:28.421Z,57.03
2023-05-25T02:21:30.709Z,57.00
2023-05-25T02:22:33.351Z,57.00
2023-05-25T02:23:35.774Z,57.02
2023-05-25T02:24:38.560Z,57.19
2023-05-25T02:25:40.653Z,57.22
2023-05-25T02:26:43.235Z,57.12
2023-05-25T02:27:45.540Z,57.26
2023-05-25T02:28:48.245Z,57.34
2023-05-25T02:29:52.404Z,57.30
2023-05-25T02:30:54.651Z,57.39
2023-05-25T02:31:57.518Z,57.14
2023-05-25T02:33:00.047Z,57.91
2023-05-25T02:34:02.482Z,58.64
2023-05-25T02:35:05.243Z,58.72
2023-05-25T02:36:08.899Z,58.33
2023-05-25T02:37:11.349Z,58.62
2023-05-25T02:38:13.859Z,59.37
2023-05-25T02:39:16.230Z,58.84
2023-05-25T02:40:18.600Z,59.04
2023-05-25T02:41:21.161Z,59.42
2023-05-25T02:42:23.504Z,59.92
2023-05-25T02:43:25.601Z,60.99
2023-05-25T02:44:27.919Z,61.26
2023-05-25T02:45:30.554Z,61.96
2023-05-25T02:46:34.021Z,61.99
2023-05-25T02:47:36.751Z,61.03
2023-05-25T02:48:39.294Z,60.56
2023-05-25T02:49:42.344Z,59.59
2023-05-25T02:50:45.452Z,59.77
2023-05-25T02:51:49.277Z,59.35
2023-05-25T02:52:52.095Z,59.06
2023-05-25T02:53:54.401Z,58.69
2023-05-25T02:54:56.587Z,58.23
2023-05-25T02:56:01.268Z,58.33
2023-05-25T02:57:05.953Z,57.78
2023-05-25T02:58:08.715Z,58.03
2023-05-25T02:59:29.168Z,57.98
2023-05-25T03:00:32.957Z,57.81
2023-05-25T03:01:35.328Z,58.23
2023-05-25T03:02:38.615Z,58.28
2023-05-25T03:03:41.006Z,58.01
2023-05-25T03:04:44.670Z,57.77
2023-05-25T03:05:48.280Z,57.35
2023-05-25T03:06:51.112Z,57.22
2023-05-25T03:07:54.486Z,57.31
2023-05-25T03:08:57.463Z,57.25
2023-05-25T03:10:00.854Z,57.10
2023-05-25T03:11:03.447Z,57.15
2023-05-25T03:12:06.658Z,56.96
2023-05-25T03:13:28.636Z,57.20
2023-05-25T03:14:31.989Z,57.03
2023-05-25T03:15:36.262Z,56.14
2023-05-25T03:16:40.183Z,55.98
2023-05-25T03:17:43.202Z,55.89
2023-05-25T03:18:46.116Z,55.98
2023-05-25T03:19:48.482Z,55.67
2023-05-25T03:20:50.958Z,55.73
2023-05-25T03:21:53.695Z,55.58
2023-05-25T03:22:55.984Z,55.89
2023-05-25T03:23:58.464Z,56.44
2023-05-25T03:25:00.944Z,56.33
2023-05-25T03:26:03.380Z,56.44
2023-05-25T03:27:06.439Z,56.47
2023-05-25T03:28:08.850Z,56.53
2023-05-25T03:29:11.967Z,56.46
2023-05-25T03:30:14.860Z,56.64
2023-05-25T03:31:18.850Z,56.71
2023-05-25T03:32:21.604Z,56.77
2023-05-25T03:33:25.354Z,56.82
2023-05-25T03:34:29.314Z,57.12
2023-05-25T03:35:31.715Z,57.08
2023-05-25T03:36:34.188Z,56.92
2023-05-25T03:37:36.728Z,57.05
2023-05-25T03:38:41.786Z,57.38
2023-05-25T03:39:44.097Z,57.12
2023-05-25T03:40:47.011Z,57.16
2023-05-25T03:41:49.548Z,57.07
2023-05-25T03:42:53.824Z,57.08
2023-05-25T03:43:57.229Z,57.18
2023-05-25T03:44:59.625Z,57.18
2023-05-25T03:46:02.056Z,57.08
2023-05-25T03:47:04.766Z,57.20
2023-05-25T03:48:07.234Z,57.10
2023-05-25T03:49:09.738Z,57.04
2023-05-25T03:50:13.344Z,57.24
2023-05-25T03:51:17.466Z,57.54
2023-05-25T03:52:21.327Z,57.14
2023-05-25T03:53:23.792Z,56.98
2023-05-25T03:54:26.455Z,57.00
2023-05-25T03:55:28.846Z,57.17
2023-05-25T03:56:31.666Z,57.30
2023-05-25T03:57:34.206Z,56.99
2023-05-25T03:58:37.771Z,56.99
2023-05-25T03:59:40.511Z,56.33
2023-05-25T04:00:43.308Z,56.17
2023-05-25T04:01:45.680Z,55.98
2023-05-25T04:02:48.495Z,56.04
2023-05-25T04:03:50.896Z,56.01
2023-05-25T04:04:53.781Z,55.90
2023-05-25T04:05:56.336Z,55.57
2023-05-25T04:07:00.260Z,55.31
2023-05-25T04:08:02.862Z,54.83
2023-05-25T04:09:05.308Z,54.57
2023-05-25T04:10:10.198Z,54.22
2023-05-25T04:11:14.516Z,54.16
2023-05-25T04:12:16.924Z,53.82
2023-05-25T04:13:20.075Z,53.57
2023-05-25T04:14:26.375Z,53.40
2023-05-25T04:15:29.246Z,53.23
2023-05-25T04:16:36.928Z,53.01
2023-05-25T04:17:45.299Z,52.73
2023-05-25T04:18:48.116Z,52.61
2023-05-25T04:19:52.337Z,52.34
2023-05-25T04:20:55.817Z,52.06
2023-05-25T04:21:58.410Z,52.04
2023-05-25T04:23:02.649Z,51.87
2023-05-25T04:24:05.883Z,51.67
2023-05-25T04:25:10.170Z,51.56
2023-05-25T04:26:13.289Z,51.57
2023-05-25T04:27:17.142Z,51.37
2023-05-25T04:28:20.172Z,51.38
2023-05-25T04:29:30.101Z,51.29
2023-05-25T04:31:47.563Z,50.95
2023-05-25T04:32:54.699Z,50.84
2023-05-25T04:33:59.368Z,50.34
2023-05-25T04:35:06.980Z,50.54
2023-05-25T04:36:11.990Z,50.78
2023-05-25T04:37:15.139Z,51.05
2023-05-25T04:38:18.510Z,50.94
2023-05-25T04:39:20.610Z,51.06
2023-05-25T04:40:24.682Z,51.06
2023-05-25T04:41:28.925Z,51.23
2023-05-25T04:42:33.102Z,51.26
2023-05-25T04:43:35.428Z,51.37
2023-05-25T04:44:37.631Z,51.27
2023-05-25T04:45:41.145Z,51.43
2023-05-25T04:46:44.275Z,51.42
2023-05-25T04:47:49.581Z,51.41
2023-05-25T04:48:52.408Z,51.22
2023-05-25T04:49:55.052Z,51.05
2023-05-25T04:50:59.289Z,51.02
2023-05-25T04:52:01.561Z,51.33
2023-05-25T04:53:06.330Z,51.70
2023-05-25T04:54:08.709Z,51.92
2023-05-25T04:55:11.167Z,52.19
2023-05-25T04:56:15.652Z,52.75
2023-05-25T04:57:17.994Z,52.74
2023-05-25T04:58:20.934Z,52.44
2023-05-25T04:59:23.400Z,52.29
2023-05-25T05:00:26.315Z,52.54
2023-05-25T05:01:31.489Z,52.72
2023-05-25T05:02:35.750Z,52.67
2023-05-25T05:03:38.148Z,52.64
2023-05-25T05:04:41.010Z,52.64
2023-05-25T05:05:44.489Z,52.19
2023-05-25T05:06:48.985Z,52.07
2023-05-25T05:07:55.982Z,52.29
2023-05-25T05:08:58.178Z,52.33
2023-05-25T05:10:00.430Z,52.35
2023-05-25T05:11:04.357Z,52.27
2023-05-25T05:12:08.956Z,52.12
2023-05-25T05:13:27.527Z,52.09
2023-05-25T05:14:30.276Z,52.14
2023-05-25T05:15:32.608Z,51.84
2023-05-25T05:16:36.088Z,51.49
2023-05-25T05:17:39.947Z,50.81
2023-05-25T05:18:43.189Z,50.39
2023-05-25T05:19:45.577Z,50.11
2023-05-25T05:20:48.219Z,50.65
2023-05-25T05:21:52.176Z,50.08
2023-05-25T05:22:56.996Z,49.55
2023-05-25T05:23:59.356Z,48.92
2023-05-25T05:25:01.623Z,48.88
2023-05-25T05:26:05.552Z,48.63
2023-05-25T05:27:08.410Z,48.45
2023-05-25T05:28:12.612Z,48.57
2023-05-25T05:29:16.423Z,48.58
2023-05-25T05:30:18.798Z,48.38
2023-05-25T05:31:22.088Z,48.02
2023-05-25T05:32:24.567Z,47.56
2023-05-25T05:33:27.026Z,47.92
2023-05-25T05:34:29.823Z,47.79
2023-05-25T05:35:32.815Z,47.62
2023-05-25T05:36:57.466Z,47.17
2023-05-25T05:37:52.255Z,47.17
2023-05-25T05:38:54.669Z,47.05
2023-05-25T05:39:57.435Z,46.60
2023-05-25T05:40:59.894Z,46.42
2023-05-25T05:42:03.599Z,46.38
2023-05-25T05:43:05.994Z,46.54
2023-05-25T05:44:09.652Z,45.72
2023-05-25T05:45:11.942Z,45.17
2023-05-25T05:46:15.394Z,45.73
2023-05-25T05:47:18.792Z,45.59
2023-05-25T05:48:21.208Z,44.21
2023-05-25T05:49:23.594Z,44.85
2023-05-25T05:50:26.685Z,44.73
2023-05-25T05:51:29.149Z,45.02
2023-05-25T05:52:31.467Z,44.33
2023-05-25T05:53:34.163Z,44.87
2023-05-25T05:54:37.245Z,44.33
2023-05-25T05:55:42.614Z,44.58
2023-05-25T05:56:45.222Z,44.40
2023-05-25T05:57:48.292Z,43.72
2023-05-25T05:58:50.628Z,43.66
2023-05-25T05:59:53.400Z,42.10
2023-05-25T06:00:56.755Z,42.94
2023-05-25T06:03:10.701Z,43.38
2023-05-25T06:04:14.861Z,42.61
2023-05-25T06:05:19.009Z,42.32
2023-05-25T06:06:22.616Z,42.48
2023-05-25T06:07:24.958Z,42.77
2023-05-25T06:08:27.804Z,42.78
2023-05-25T06:09:30.228Z,42.06
2023-05-25T06:10:34.490Z,42.08
2023-05-25T06:11:37.839Z,41.93
2023-05-25T06:12:40.965Z,42.01
2023-05-25T06:13:46.677Z,41.86
2023-05-25T06:14:50.656Z,41.96
2023-05-25T06:15:53.940Z,42.34
2023-05-25T06:16:58.366Z,41.22
2023-05-25T06:18:01.478Z,40.86
2023-05-25T06:19:05.311Z,40.65
2023-05-25T06:20:10.282Z,39.70
2023-05-25T06:21:13.182Z,40.69
2023-05-25T06:22:16.602Z,40.93
2023-05-25T06:23:22.077Z,41.31
2023-05-25T06:24:24.613Z,41.25
2023-05-25T06:25:27.867Z,41.50
2023-05-25T06:26:30.967Z,41.39
2023-05-25T06:27:34.194Z,40.98
2023-05-25T06:28:37.066Z,40.94
2023-05-25T06:29:40.246Z,41.27
2023-05-25T06:30:46.051Z,40.88
2023-05-25T06:31:48.533Z,41.63
2023-05-25T06:32:51.852Z,41.58
2023-05-25T06:33:54.905Z,41.72
2023-05-25T06:34:58.079Z,41.73
2023-05-25T06:36:00.883Z,41.16
2023-05-25T06:37:03.198Z,41.51
2023-05-25T06:39:15.935Z,41.39
2023-05-25T06:40:19.749Z,41.39
2023-05-25T06:41:24.955Z,42.31
2023-05-25T06:42:28.904Z,42.53
2023-05-25T06:43:32.290Z,41.91
2023-05-25T06:45:56.290Z,42.73
2023-05-25T06:46:58.834Z,42.35
2023-05-25T06:48:01.791Z,43.21
2023-05-25T06:49:04.650Z,42.83
2023-05-25T06:50:08.714Z,43.18
2023-05-25T06:51:13.117Z,42.45
2023-05-25T06:52:15.733Z,42.64
2023-05-25T06:53:18.309Z,43.38
2023-05-25T06:54:20.792Z,43.81
2023-05-25T06:55:23.284Z,44.39
2023-05-25T06:56:25.736Z,44.63
2023-05-25T06:57:28.018Z,44.71
2023-05-25T06:59:39.532Z,43.95
2023-05-25T07:00:42.580Z,44.33
2023-05-25T07:01:47.490Z,44.00
2023-05-25T07:02:49.877Z,43.68
2023-05-25T07:03:53.082Z,42.95
2023-05-25T07:04:56.466Z,42.55
2023-05-25T07:06:02.157Z,41.97
2023-05-25T07:07:05.748Z,41.82
2023-05-25T07:08:09.768Z,42.43
2023-05-25T07:09:13.357Z,42.91
2023-05-25T07:10:22.478Z,41.83
2023-05-25T07:11:29.571Z,42.33
2023-05-25T07:12:33.076Z,42.33
2023-05-25T07:13:36.021Z,42.87
2023-05-25T07:14:40.799Z,43.18
2023-05-25T07:15:43.362Z,43.23
2023-05-25T07:16:50.128Z,42.08
2023-05-25T07:17:57.857Z,42.71
2023-05-25T07:19:00.553Z,42.84
2023-05-25T07:20:04.336Z,42.91
2023-05-25T07:21:22.160Z,42.47
2023-05-25T07:22:25.393Z,40.61
2023-05-25T07:23:29.521Z,40.83
2023-05-25T07:24:34.430Z,41.26
2023-05-25T07:25:42.443Z,41.61
2023-05-25T07:26:45.042Z,41.07
2023-05-25T07:27:48.780Z,41.46
2023-05-25T07:28:51.145Z,41.81
2023-05-25T07:29:53.406Z,39.74
2023-05-25T07:30:57.892Z,40.18
2023-05-25T07:32:00.826Z,39.75
2023-05-25T07:33:03.321Z,40.66
2023-05-25T07:34:05.626Z,40.81
2023-05-25T07:35:08.872Z,40.55
2023-05-25T07:36:12.025Z,40.72
2023-05-25T07:37:15.877Z,40.66
2023-05-25T07:38:25.451Z,40.69
2023-05-25T07:39:31.725Z,41.06
2023-05-25T07:40:34.099Z,41.19
2023-05-25T07:41:37.259Z,40.93
2023-05-25T07:42:40.630Z,40.23
2023-05-25T07:43:42.932Z,39.99
2023-05-25T07:44:45.286Z,40.60
2023-05-25T07:45:47.726Z,40.34
2023-05-25T07:46:52.048Z,38.90
2023-05-25T07:47:54.475Z,39.94
2023-05-25T07:48:56.834Z,40.44
2023-05-25T07:50:00.190Z,40.60
2023-05-25T07:51:02.679Z,40.60
2023-05-25T07:52:04.875Z,40.19
2023-05-25T07:54:16.316Z,39.60
2023-05-25T07:55:19.090Z,39.18
2023-05-25T07:56:22.850Z,37.88
2023-05-25T07:57:25.224Z,39.45
2023-05-25T07:58:27.442Z,39.45
2023-05-25T07:59:30.784Z,39.95
2023-05-25T08:00:33.653Z,39.58
2023-05-25T08:01:35.921Z,39.88
2023-05-25T08:02:40.360Z,40.17
2023-05-25T08:03:50.298Z,39.73
2023-05-25T08:06:07.526Z,40.03
2023-05-25T08:07:14.940Z,39.84
2023-05-25T08:08:21.904Z,40.08
2023-05-25T08:09:25.469Z,39.94
2023-05-25T08:10:31.326Z,40.04
2023-05-25T08:11:36.655Z,39.93
2023-05-25T08:12:48.807Z,39.20
2023-05-25T08:13:44.660Z,39.20
2023-05-25T08:14:51.778Z,38.44
2023-05-25T08:15:54.193Z,38.45
2023-05-25T08:17:00.018Z,39.22
2023-05-25T08:18:05.446Z,38.34
2023-05-25T08:19:09.873Z,39.35
2023-05-25T08:20:16.609Z,39.04
2023-05-25T08:21:25.887Z,39.54
2023-05-25T08:22:29.079Z,39.52
2023-05-25T08:23:31.164Z,38.22
2023-05-25T08:24:33.271Z,38.26
2023-05-25T08:25:36.087Z,39.27
2023-05-25T08:26:53.790Z,39.52
2023-05-25T08:27:49.832Z,36.45
2023-05-25T08:28:53.223Z,36.26
2023-05-25T08:29:59.463Z,36.31
2023-05-25T08:31:02.320Z,37.27
2023-05-25T08:32:16.769Z,38.15
2023-05-25T08:33:20.826Z,38.36
2023-05-25T08:35:36.874Z,36.34
2023-05-25T08:36:40.022Z,36.57
2023-05-25T08:37:42.412Z,38.06
2023-05-25T08:38:45.484Z,38.32
2023-05-25T08:39:50.225Z,38.46
2023-05-25T08:41:05.716Z,38.48
2023-05-25T08:42:12.438Z,37.66
2023-05-25T08:43:14.836Z,37.57
2023-05-25T08:44:26.748Z,38.69
2023-05-25T08:45:35.662Z,39.04
2023-05-25T08:46:38.706Z,39.32
2023-05-25T08:47:46.655Z,39.61
2023-05-25T08:48:50.963Z,39.77
2023-05-25T08:49:59.275Z,39.92
2023-05-25T08:51:10.245Z,39.92
2023-05-25T08:52:22.453Z,39.42
2023-05-25T08:53:27.447Z,39.46
2023-05-25T08:54:33.308Z,37.68
2023-05-25T08:55:37.348Z,36.26
2023-05-25T08:58:17.321Z,33.82
2023-05-25T08:59:37.943Z,33.92
2023-05-25T09:00:46.450Z,34.97
2023-05-25T09:03:22.504Z,34.83
2023-05-25T09:04:27.788Z,35.17
2023-05-25T09:05:41.263Z,35.12
2023-05-25T09:06:39.204Z,34.85
2023-05-25T09:07:43.695Z,35.04
2023-05-25T09:08:49.415Z,35.11
2023-05-25T09:09:51.811Z,34.64
2023-05-25T09:10:58.653Z,34.62
2023-05-25T09:12:09.901Z,35.55
2023-05-25T09:13:22.072Z,36.16
2023-05-25T09:14:18.278Z,36.36
2023-05-25T09:15:21.337Z,36.84
2023-05-25T09:16:25.785Z,36.74
2023-05-25T09:17:29.933Z,37.70
2023-05-25T09:18:32.238Z,36.43
2023-05-25T09:19:35.609Z,36.99
2023-05-25T09:20:39.056Z,38.39
2023-05-25T09:21:42.213Z,38.84
2023-05-25T09:22:46.646Z,39.29
2023-05-25T09:23:49.976Z,40.08
2023-05-25T09:24:54.184Z,40.72
2023-05-25T09:25:57.990Z,40.90
2023-05-25T09:27:00.496Z,41.48
2023-05-25T09:28:13.701Z,41.73
2023-05-25T09:29:07.050Z,41.67
2023-05-25T09:30:12.125Z,41.64
2023-05-25T09:31:15.954Z,41.29
2023-05-25T09:32:18.989Z,40.91
2023-05-25T09:34:32.309Z,41.00
2023-05-25T09:35:38.685Z,41.64
2023-05-25T09:37:53.979Z,41.73
2023-05-25T09:38:57.286Z,41.88
2023-05-25T09:39:59.937Z,41.80
2023-05-25T09:41:03.656Z,41.79
2023-05-25T09:42:10.432Z,42.08
2023-05-25T09:43:17.193Z,42.21
2023-05-25T09:44:16.953Z,42.42
2023-05-25T09:45:19.396Z,42.58
2023-05-25T09:46:23.631Z,43.07
2023-05-25T09:47:28.035Z,42.68
2023-05-25T09:48:33.437Z,43.14
2023-05-25T09:49:36.002Z,43.43
2023-05-25T09:50:38.302Z,43.64
2023-05-25T09:51:40.712Z,43.45
2023-05-25T09:53:56.244Z,42.88
2023-05-25T09:55:00.405Z,42.86
2023-05-25T09:56:05.329Z,42.06
2023-05-25T09:57:07.786Z,42.22
2023-05-25T09:58:10.608Z,42.44
2023-05-25T09:59:12.892Z,41.07
2023-05-25T10:00:17.297Z,41.53
2023-05-25T10:01:19.816Z,41.25
2023-05-25T10:02:23.089Z,41.66
2023-05-25T10:03:25.546Z,41.32
2023-05-25T10:04:27.885Z,41.86
2023-05-25T10:05:30.262Z,42.30
2023-05-25T10:06:33.639Z,42.66
2023-05-25T10:07:39.465Z,41.47
2023-05-25T10:08:43.626Z,40.39
2023-05-25T10:09:46.558Z,40.48
2023-05-25T10:10:50.294Z,40.96
2023-05-25T10:11:54.826Z,40.47
2023-05-25T10:12:57.344Z,40.16
2023-05-25T10:14:00.622Z,41.26
2023-05-25T10:15:04.163Z,41.06
2023-05-25T10:16:09.075Z,41.10
2023-05-25T10:17:13.331Z,41.58
2023-05-25T10:18:16.870Z,42.72
2023-05-25T10:20:38.906Z,42.29
2023-05-25T10:21:43.068Z,42.91
2023-05-25T10:22:57.997Z,43.88
2023-05-25T10:25:38.292Z,44.67
2023-05-25T10:26:43.615Z,45.14
2023-05-25T10:29:04.490Z,45.83
2023-05-25T10:30:09.020Z,45.43
2023-05-25T10:31:12.011Z,45.12
2023-05-25T10:32:16.657Z,45.26
2023-05-25T10:33:21.245Z,45.01
2023-05-25T10:34:23.717Z,44.86
2023-05-25T10:35:27.881Z,44.99
2023-05-25T10:36:31.964Z,45.18
2023-05-25T10:37:34.819Z,45.37
2023-05-25T10:38:40.182Z,45.59
2023-05-25T10:39:42.507Z,45.62
2023-05-25T10:40:54.585Z,45.81
2023-05-25T10:41:56.837Z,46.00
2023-05-25T10:43:01.109Z,46.06
2023-05-25T10:44:03.808Z,46.08
2023-05-25T10:45:08.027Z,46.21
2023-05-25T10:46:10.965Z,46.62
2023-05-25T10:47:15.616Z,46.79
2023-05-25T10:48:18.271Z,46.84
2023-05-25T10:49:27.887Z,46.83
2023-05-25T10:50:34.097Z,46.82
2023-05-25T10:51:40.619Z,46.83
2023-05-25T10:52:42.984Z,46.81
2023-05-25T10:53:47.298Z,46.86
2023-05-25T10:54:49.566Z,46.79
2023-05-25T10:57:11.849Z,46.88
2023-05-25T10:58:17.195Z,46.85
2023-05-25T10:59:27.372Z,46.79
2023-05-25T11:00:31.962Z,46.76
2023-05-25T11:01:38.009Z,46.87
2023-05-25T11:02:51.501Z,46.85
2023-05-25T11:03:59.461Z,46.85
2023-05-25T11:05:28.467Z,46.82
2023-05-25T11:06:42.718Z,46.93
2023-05-25T11:08:04.120Z,46.89
2023-05-25T11:09:07.655Z,46.97
2023-05-25T11:10:12.597Z,46.98
2023-05-25T11:11:17.016Z,47.01
2023-05-25T11:12:22.276Z,47.17
2023-05-25T11:13:41.461Z,47.31
2023-05-25T11:14:44.128Z,47.66
2023-05-25T11:15:48.153Z,47.70
2023-05-25T11:17:12.041Z,47.88
2023-05-25T11:29:51.710Z,47.80
2023-05-25T11:30:54.652Z,49.13
2023-05-25T11:31:57.592Z,49.55
2023-05-25T11:34:12.827Z,49.84
2023-05-25T11:35:15.612Z,49.63
2023-05-25T11:36:18.868Z,49.65
2023-05-25T11:37:23.543Z,49.72
2023-05-25T11:38:25.770Z,49.46
2023-05-25T11:39:31.529Z,49.33
2023-05-25T11:40:36.387Z,49.55
2023-05-25T11:41:45.970Z,49.45
2023-05-25T11:42:49.980Z,49.52
2023-05-25T11:43:53.386Z,49.58
2023-05-25T11:44:56.041Z,49.72
2023-05-25T11:45:58.401Z,49.88
2023-05-25T11:47:03.492Z,49.77
2023-05-25T11:48:06.037Z,49.84
2023-05-25T11:49:08.432Z,49.86
2023-05-25T11:50:16.030Z,49.91
2023-05-25T11:51:23.601Z,50.17
2023-05-25T11:52:27.253Z,50.12
2023-05-25T11:53:30.297Z,50.39
2023-05-25T11:54:33.637Z,50.43
2023-05-25T11:55:36.950Z,50.46
2023-05-25T11:56:39.967Z,50.40
2023-05-25T11:57:42.342Z,50.28
2023-05-25T11:59:56.638Z,50.22
2023-05-25T12:01:15.147Z,50.19
2023-05-25T12:02:22.993Z,50.03
2023-05-25T12:03:30.728Z,49.95
2023-05-25T12:04:33.647Z,50.00
2023-05-25T12:05:40.463Z,50.13
2023-05-25T12:06:43.024Z,50.18
2023-05-25T12:07:46.743Z,50.41
2023-05-25T12:08:51.587Z,50.69
2023-05-25T12:10:08.833Z,50.70
2023-05-25T12:11:11.176Z,50.77
2023-05-25T12:12:14.241Z,50.80
2023-05-25T12:13:16.561Z,51.05
2023-05-25T12:14:18.914Z,51.09
2023-05-25T12:15:23.049Z,51.26
2023-05-25T12:16:27.248Z,51.08
2023-05-25T12:17:30.140Z,50.99
2023-05-25T12:18:33.470Z,51.03
2023-05-25T12:19:36.770Z,51.13
2023-05-25T12:20:39.933Z,51.21
2023-05-25T12:21:42.788Z,51.13
2023-05-25T12:22:46.836Z,51.11
2023-05-25T12:23:50.284Z,51.40
2023-05-25T12:24:52.818Z,51.75
2023-05-25T12:26:12.170Z,51.47
2023-05-25T12:27:19.474Z,51.54
2023-05-25T12:28:22.044Z,51.60
2023-05-25T12:29:24.729Z,51.41
2023-05-25T12:30:29.879Z,51.75
2023-05-25T12:33:03.833Z,51.81
2023-05-25T12:34:15.905Z,51.83
2023-05-25T12:35:18.668Z,51.88
2023-05-25T12:36:55.084Z,51.96
2023-05-25T12:38:21.585Z,52.03
2023-05-25T12:39:35.075Z,52.13
2023-05-25T12:40:38.105Z,52.13
2023-05-25T12:41:49.432Z,52.31
2023-05-25T12:42:57.026Z,51.93
2023-05-25T12:43:59.633Z,51.94
2023-05-25T12:45:01.904Z,51.60
2023-05-25T12:46:05.225Z,51.79
2023-05-25T12:47:21.444Z,51.69
2023-05-25T12:48:28.053Z,51.64
2023-05-25T12:49:33.798Z,51.63
2023-05-25T12:50:37.281Z,51.45
2023-05-25T12:51:40.412Z,51.58
2023-05-25T12:52:44.287Z,51.46
2023-05-25T12:53:52.260Z,51.67
2023-05-25T12:56:23.144Z,51.71
2023-05-25T12:57:29.032Z,51.75
2023-05-25T12:58:31.476Z,51.74
2023-05-25T12:59:38.060Z,51.65
2023-05-25T13:00:40.439Z,51.70
2023-05-25T13:01:43.825Z,51.64
2023-05-25T13:02:47.886Z,51.43
2023-05-25T13:03:50.322Z,51.37
2023-05-25T13:04:52.535Z,51.31
2023-05-25T13:07:08.731Z,51.19
2023-05-25T13:08:11.466Z,51.25
2023-05-25T13:09:13.963Z,51.07
2023-05-25T13:10:17.847Z,50.92
2023-05-25T13:11:20.359Z,50.74
2023-05-25T13:12:22.981Z,50.65
2023-05-25T13:13:25.099Z,50.47
2023-05-25T13:14:28.104Z,50.20
2023-05-25T13:15:30.414Z,49.83
2023-05-25T13:17:57.000Z,49.62
2023-05-25T13:19:02.593Z,49.65
2023-05-25T13:20:06.630Z,48.86
2023-05-25T13:21:08.981Z,48.91
2023-05-25T13:22:11.679Z,48.52
2023-05-25T13:23:18.207Z,48.57
2023-05-25T13:24:21.801Z,48.60
2023-05-25T13:25:24.594Z,48.93
2023-05-25T13:26:27.106Z,48.99
2023-05-25T13:27:29.232Z,48.87
2023-05-25T13:28:31.359Z,48.82
2023-05-25T13:29:33.470Z,48.70
2023-05-25T13:30:35.783Z,48.71
2023-05-25T13:31:38.156Z,48.71
2023-05-25T13:32:41.053Z,48.66
2023-05-25T13:33:43.403Z,48.73
2023-05-25T13:34:45.597Z,48.87
2023-05-25T13:35:48.691Z,48.91
2023-05-25T13:36:51.245Z,49.26
2023-05-25T13:37:53.944Z,49.20
2023-05-25T13:38:56.455Z,49.27
2023-05-25T13:39:58.955Z,49.41
2023-05-25T13:41:02.363Z,49.30
2023-05-25T13:42:07.072Z,49.33
2023-05-25T13:43:09.347Z,49.44
2023-05-25T13:44:12.232Z,49.43
2023-05-25T13:45:14.976Z,49.36
2023-05-25T13:46:32.858Z,49.21
2023-05-25T13:47:22.128Z,48.66
2023-05-25T13:48:25.578Z,48.93
2023-05-25T13:49:28.004Z,49.05
2023-05-25T13:50:32.264Z,49.01
2023-05-25T13:51:34.660Z,48.74
2023-05-25T13:52:40.090Z,48.75
2023-05-25T13:54:59.851Z,48.74
2023-05-25T13:56:02.252Z,48.56
2023-05-25T13:57:05.793Z,48.66
2023-05-25T13:58:09.726Z,48.71
2023-05-25T13:59:12.122Z,48.73
2023-05-25T14:00:16.175Z,48.84
2023-05-25T14:01:18.714Z,49.14
2023-05-25T14:02:22.031Z,49.14
2023-05-25T14:03:25.177Z,49.23
2023-05-25T14:04:27.625Z,49.15
2023-05-25T14:05:29.682Z,49.42
2023-05-25T14:06:32.945Z,49.43
2023-05-25T14:07:35.299Z,48.90
2023-05-25T14:08:38.156Z,47.75
2023-05-25T14:09:40.166Z,47.31
2023-05-25T14:10:42.552Z,47.54
2023-05-25T14:11:44.914Z,47.41
2023-05-25T14:12:48.152Z,47.40
2023-05-25T14:13:51.018Z,47.62
2023-05-25T14:14:53.312Z,47.36
2023-05-25T14:15:56.270Z,47.56
2023-05-25T14:16:59.889Z,47.93
2023-05-25T14:18:02.977Z,48.08
2023-05-25T14:19:06.323Z,48.26
2023-05-25T14:20:09.718Z,48.58
2023-05-25T14:21:12.093Z,48.71
2023-05-25T14:22:15.532Z,48.89
2023-05-25T14:23:18.644Z,49.12
2023-05-25T14:24:22.459Z,49.25
2023-05-25T14:25:24.810Z,49.43
2023-05-25T14:26:27.701Z,49.50
2023-05-25T14:27:30.047Z,49.69
2023-05-25T14:28:32.180Z,49.96
2023-05-25T14:29:34.458Z,50.14
2023-05-25T14:30:37.294Z,50.35
2023-05-25T14:31:40.009Z,50.36
2023-05-25T14:32:42.725Z,50.37